sensor_id;sensor_type;location;lat;lon;timestamp;temperature;humidity
8709;DHT22;4391;48.678;9.280;2023-02-01T00:02:10;3.30;98.20
8709;DHT22;4391;48.678;9.280;2023-02-01T00:04:36;3.30;99.90
8709;DHT22;4391;48.678;9.280;2023-02-01T00:07:03;3.30;99.90
8709;DHT22;4391;48.678;9.280;2023-02-01T00:09:30;3.30;99.90
8709;DHT22;4391;48.678;9.280;2023-02-01T00:11:58;3.30;99.90
8709;DHT22;4391;48.678;9.280;2023-02-01T00:14:27;3.20;99.90
8709;DHT22;4391;48.678;9.280;2023-02-01T00:16:54;3.20;99.90
8709;DHT22;4391;48.678;9.280;2023-02-01T00:19:21;3.20;99.90
8709;DHT22;4391;48.678;9.280;2023-02-01T00:21:48;3.20;99.90
8709;DHT22;4391;48.678;9.280;2023-02-01T00:24:14;3.20;99.90
8709;DHT22;4391;48.678;9.280;2023-02-01T00:26:43;3.20;99.90
8709;DHT22;4391;48.678;9.280;2023-02-01T00:29:14;3.20;99.90
8709;DHT22;4391;48.678;9.280;2023-02-01T00:31:42;3.20;99.90
8709;DHT22;4391;48.678;9.280;2023-02-01T00:34:09;3.20;99.90
8709;DHT22;4391;48.678;9.280;2023-02-01T00:36:37;3.30;99.00
8709;DHT22;4391;48.678;9.280;2023-02-01T00:39:03;3.30;97.60
8709;DHT22;4391;48.678;9.280;2023-02-01T00:41:31;3.30;95.80
8709;DHT22;4391;48.678;9.280;2023-02-01T00:43:57;3.30;94.70
8709;DHT22;4391;48.678;9.280;2023-02-01T00:46:26;3.30;91.40
8709;DHT22;4391;48.678;9.280;2023-02-01T00:48:52;3.30;91.20
8709;DHT22;4391;48.678;9.280;2023-02-01T00:51:21;3.30;90.70
8709;DHT22;4391;48.678;9.280;2023-02-01T00:53:48;3.40;89.30
8709;DHT22;4391;48.678;9.280;2023-02-01T00:56:15;3.40;85.60
8709;DHT22;4391;48.678;9.280;2023-02-01T00:58:44;3.40;79.90
8709;DHT22;4391;48.678;9.280;2023-02-01T01:01:13;3.40;82.40
8709;DHT22;4391;48.678;9.280;2023-02-01T01:03:44;3.40;80.40
8709;DHT22;4391;48.678;9.280;2023-02-01T01:06:13;3.40;81.90
8709;DHT22;4391;48.678;9.280;2023-02-01T01:08:41;3.40;76.60
8709;DHT22;4391;48.678;9.280;2023-02-01T01:11:09;3.40;78.10
8709;DHT22;4391;48.678;9.280;2023-02-01T01:13:37;3.40;79.10
8709;DHT22;4391;48.678;9.280;2023-02-01T01:16:05;3.40;77.00
8709;DHT22;4391;48.678;9.280;2023-02-01T01:18:33;3.40;76.20
8709;DHT22;4391;48.678;9.280;2023-02-01T01:21:04;3.40;77.80
8709;DHT22;4391;48.678;9.280;2023-02-01T01:23:31;3.40;81.70
8709;DHT22;4391;48.678;9.280;2023-02-01T01:25:58;3.40;78.40
8709;DHT22;4391;48.678;9.280;2023-02-01T01:28:25;3.40;75.50
8709;DHT22;4391;48.678;9.280;2023-02-01T01:30:52;3.40;72.60
8709;DHT22;4391;48.678;9.280;2023-02-01T01:33:18;3.40;78.00
8709;DHT22;4391;48.678;9.280;2023-02-01T01:35:45;3.40;75.40
8709;DHT22;4391;48.678;9.280;2023-02-01T01:38:13;3.40;73.30
8709;DHT22;4391;48.678;9.280;2023-02-01T01:40:44;3.50;67.20
8709;DHT22;4391;48.678;9.280;2023-02-01T01:43:13;3.50;65.90
8709;DHT22;4391;48.678;9.280;2023-02-01T01:45:41;3.50;66.90
8709;DHT22;4391;48.678;9.280;2023-02-01T01:48:13;3.50;70.40
8709;DHT22;4391;48.678;9.280;2023-02-01T01:50:44;3.50;68.60
8709;DHT22;4391;48.678;9.280;2023-02-01T01:53:18;3.50;65.30
8709;DHT22;4391;48.678;9.280;2023-02-01T01:55:47;3.50;65.30
8709;DHT22;4391;48.678;9.280;2023-02-01T01:58:19;3.50;66.50
8709;DHT22;4391;48.678;9.280;2023-02-01T02:00:47;3.50;65.10
8709;DHT22;4391;48.678;9.280;2023-02-01T02:03:18;3.50;64.80
8709;DHT22;4391;48.678;9.280;2023-02-01T02:05:48;3.70;57.70
8709;DHT22;4391;48.678;9.280;2023-02-01T02:08:18;3.60;58.40
8709;DHT22;4391;48.678;9.280;2023-02-01T02:10:48;3.60;57.80
8709;DHT22;4391;48.678;9.280;2023-02-01T02:13:32;3.60;56.40
8709;DHT22;4391;48.678;9.280;2023-02-01T02:16:34;3.60;54.20
8709;DHT22;4391;48.678;9.280;2023-02-01T02:22:35;3.60;51.90
8709;DHT22;4391;48.678;9.280;2023-02-01T02:25:33;3.60;52.30
8709;DHT22;4391;48.678;9.280;2023-02-01T02:28:20;3.70;52.80
8709;DHT22;4391;48.678;9.280;2023-02-01T02:31:12;3.60;54.60
8709;DHT22;4391;48.678;9.280;2023-02-01T02:33:52;3.70;49.50
8709;DHT22;4391;48.678;9.280;2023-02-01T02:36:30;3.70;50.50
8709;DHT22;4391;48.678;9.280;2023-02-01T02:39:05;3.70;43.00
8709;DHT22;4391;48.678;9.280;2023-02-01T02:41:39;3.70;38.20
8709;DHT22;4391;48.678;9.280;2023-02-01T02:44:32;3.80;38.80
8709;DHT22;4391;48.678;9.280;2023-02-01T02:47:28;3.80;37.50
8709;DHT22;4391;48.678;9.280;2023-02-01T02:50:05;3.80;35.30
8709;DHT22;4391;48.678;9.280;2023-02-01T02:52:58;3.80;41.00
8709;DHT22;4391;48.678;9.280;2023-02-01T02:55:45;3.80;40.30
8709;DHT22;4391;48.678;9.280;2023-02-01T02:58:12;3.80;50.70
8709;DHT22;4391;48.678;9.280;2023-02-01T03:00:57;3.80;45.00
8709;DHT22;4391;48.678;9.280;2023-02-01T03:03:43;3.80;48.30
8709;DHT22;4391;48.678;9.280;2023-02-01T03:06:36;3.80;48.60
8709;DHT22;4391;48.678;9.280;2023-02-01T03:09:10;3.70;66.00
8709;DHT22;4391;48.678;9.280;2023-02-01T03:11:41;3.70;87.10
8709;DHT22;4391;48.678;9.280;2023-02-01T03:14:37;3.60;93.10
8709;DHT22;4391;48.678;9.280;2023-02-01T03:17:13;3.60;99.20
8709;DHT22;4391;48.678;9.280;2023-02-01T03:19:44;3.60;99.50
8709;DHT22;4391;48.678;9.280;2023-02-01T03:22:18;3.50;98.80
8709;DHT22;4391;48.678;9.280;2023-02-01T03:24:47;3.50;99.90
8709;DHT22;4391;48.678;9.280;2023-02-01T03:27:19;3.50;95.40
8709;DHT22;4391;48.678;9.280;2023-02-01T03:29:51;3.60;95.20
8709;DHT22;4391;48.678;9.280;2023-02-01T03:32:21;3.60;95.50
8709;DHT22;4391;48.678;9.280;2023-02-01T03:34:49;3.50;97.40
8709;DHT22;4391;48.678;9.280;2023-02-01T03:37:22;3.50;99.90
8709;DHT22;4391;48.678;9.280;2023-02-01T03:39:54;3.50;99.90
8709;DHT22;4391;48.678;9.280;2023-02-01T03:42:27;3.60;97.40
8709;DHT22;4391;48.678;9.280;2023-02-01T03:44:58;3.60;96.00
8709;DHT22;4391;48.678;9.280;2023-02-01T03:47:30;3.60;96.40
8709;DHT22;4391;48.678;9.280;2023-02-01T03:50:02;3.60;95.20
8709;DHT22;4391;48.678;9.280;2023-02-01T03:52:37;3.60;97.00
8709;DHT22;4391;48.678;9.280;2023-02-01T03:55:07;3.60;99.90
8709;DHT22;4391;48.678;9.280;2023-02-01T03:57:37;3.50;99.90
8709;DHT22;4391;48.678;9.280;2023-02-01T04:00:06;3.50;99.90
8709;DHT22;4391;48.678;9.280;2023-02-01T04:02:34;3.50;99.90
8709;DHT22;4391;48.678;9.280;2023-02-01T04:05:01;3.50;99.90
8709;DHT22;4391;48.678;9.280;2023-02-01T04:07:28;3.50;99.90
8709;DHT22;4391;48.678;9.280;2023-02-01T04:09:56;3.50;99.90
8709;DHT22;4391;48.678;9.280;2023-02-01T04:12:23;3.50;99.40
8709;DHT22;4391;48.678;9.280;2023-02-01T04:14:50;3.60;97.80
8709;DHT22;4391;48.678;9.280;2023-02-01T04:17:16;3.50;99.30
8709;DHT22;4391;48.678;9.280;2023-02-01T04:19:44;3.60;95.30
8709;DHT22;4391;48.678;9.280;2023-02-01T04:22:10;3.60;91.20
8709;DHT22;4391;48.678;9.280;2023-02-01T04:24:37;3.70;88.30
8709;DHT22;4391;48.678;9.280;2023-02-01T04:27:05;3.70;87.60
8709;DHT22;4391;48.678;9.280;2023-02-01T04:29:32;3.70;82.00
8709;DHT22;4391;48.678;9.280;2023-02-01T04:32:00;3.70;80.40
8709;DHT22;4391;48.678;9.280;2023-02-01T04:34:27;3.70;77.90
8709;DHT22;4391;48.678;9.280;2023-02-01T04:36:54;3.70;67.50
8709;DHT22;4391;48.678;9.280;2023-02-01T04:39:20;3.70;58.60
8709;DHT22;4391;48.678;9.280;2023-02-01T04:41:47;3.70;63.20
8709;DHT22;4391;48.678;9.280;2023-02-01T04:44:17;3.80;63.30
8709;DHT22;4391;48.678;9.280;2023-02-01T04:46:45;3.80;72.50
8709;DHT22;4391;48.678;9.280;2023-02-01T04:49:13;3.70;79.50
8709;DHT22;4391;48.678;9.280;2023-02-01T04:51:41;3.70;67.90
8709;DHT22;4391;48.678;9.280;2023-02-01T04:54:09;3.70;59.60
8709;DHT22;4391;48.678;9.280;2023-02-01T04:56:38;3.70;67.00
8709;DHT22;4391;48.678;9.280;2023-02-01T04:59:09;3.80;58.80
8709;DHT22;4391;48.678;9.280;2023-02-01T05:01:38;3.80;58.60
8709;DHT22;4391;48.678;9.280;2023-02-01T05:04:13;3.80;56.50
8709;DHT22;4391;48.678;9.280;2023-02-01T05:07:03;3.80;52.70
8709;DHT22;4391;48.678;9.280;2023-02-01T05:09:48;3.80;45.00
8709;DHT22;4391;48.678;9.280;2023-02-01T05:12:17;3.90;39.80
8709;DHT22;4391;48.678;9.280;2023-02-01T05:15:08;3.80;36.60
8709;DHT22;4391;48.678;9.280;2023-02-01T05:17:48;3.80;33.50
8709;DHT22;4391;48.678;9.280;2023-02-01T05:20:26;3.80;33.60
8709;DHT22;4391;48.678;9.280;2023-02-01T05:23:14;3.80;34.20
8709;DHT22;4391;48.678;9.280;2023-02-01T05:25:59;3.80;48.60
8709;DHT22;4391;48.678;9.280;2023-02-01T05:28:34;3.80;46.40
8709;DHT22;4391;48.678;9.280;2023-02-01T05:31:26;3.70;44.90
8709;DHT22;4391;48.678;9.280;2023-02-01T05:34:19;3.80;38.40
8709;DHT22;4391;48.678;9.280;2023-02-01T05:37:12;3.80;35.40
8709;DHT22;4391;48.678;9.280;2023-02-01T05:40:13;3.80;29.00
8709;DHT22;4391;48.678;9.280;2023-02-01T05:43:34;3.80;31.30
8709;DHT22;4391;48.678;9.280;2023-02-01T05:47:12;3.90;14.40
8709;DHT22;4391;48.678;9.280;2023-02-01T05:54:14;3.90;10.60
8709;DHT22;4391;48.678;9.280;2023-02-01T05:57:11;3.90;16.30
8709;DHT22;4391;48.678;9.280;2023-02-01T05:59:45;3.90;29.60
8709;DHT22;4391;48.678;9.280;2023-02-01T06:02:15;3.80;49.00
8709;DHT22;4391;48.678;9.280;2023-02-01T06:04:57;3.80;58.40
8709;DHT22;4391;48.678;9.280;2023-02-01T06:08:01;3.70;70.10
8709;DHT22;4391;48.678;9.280;2023-02-01T06:10:48;3.70;83.20
8709;DHT22;4391;48.678;9.280;2023-02-01T06:13:14;3.60;90.40
8709;DHT22;4391;48.678;9.280;2023-02-01T06:15:41;3.60;96.70
8709;DHT22;4391;48.678;9.280;2023-02-01T06:18:09;3.60;99.90
8709;DHT22;4391;48.678;9.280;2023-02-01T06:20:36;3.50;99.90
8709;DHT22;4391;48.678;9.280;2023-02-01T06:23:03;3.50;98.50
8709;DHT22;4391;48.678;9.280;2023-02-01T06:25:31;3.50;99.90
8709;DHT22;4391;48.678;9.280;2023-02-01T06:28:01;3.50;99.90
8709;DHT22;4391;48.678;9.280;2023-02-01T06:30:31;3.50;99.90
8709;DHT22;4391;48.678;9.280;2023-02-01T06:32:58;3.40;99.90
8709;DHT22;4391;48.678;9.280;2023-02-01T06:35:24;3.40;99.90
8709;DHT22;4391;48.678;9.280;2023-02-01T06:37:51;3.40;99.90
8709;DHT22;4391;48.678;9.280;2023-02-01T06:40:18;3.40;99.90
8709;DHT22;4391;48.678;9.280;2023-02-01T06:42:45;3.40;99.90
8709;DHT22;4391;48.678;9.280;2023-02-01T06:45:16;3.40;99.90
8709;DHT22;4391;48.678;9.280;2023-02-01T06:47:42;3.50;97.80
8709;DHT22;4391;48.678;9.280;2023-02-01T06:50:10;3.50;94.50
8709;DHT22;4391;48.678;9.280;2023-02-01T06:52:37;3.50;83.60
8709;DHT22;4391;48.678;9.280;2023-02-01T06:55:04;3.60;72.90
8709;DHT22;4391;48.678;9.280;2023-02-01T06:57:31;3.60;73.00
8709;DHT22;4391;48.678;9.280;2023-02-01T06:59:59;3.60;76.30
8709;DHT22;4391;48.678;9.280;2023-02-01T07:02:27;3.60;75.40
8709;DHT22;4391;48.678;9.280;2023-02-01T07:04:54;3.60;73.00
8709;DHT22;4391;48.678;9.280;2023-02-01T07:07:21;3.60;75.90
8709;DHT22;4391;48.678;9.280;2023-02-01T07:09:48;3.60;79.00
8709;DHT22;4391;48.678;9.280;2023-02-01T07:12:16;3.60;82.00
8709;DHT22;4391;48.678;9.280;2023-02-01T07:14:43;3.60;83.20
8709;DHT22;4391;48.678;9.280;2023-02-01T07:17:10;3.60;74.80
8709;DHT22;4391;48.678;9.280;2023-02-01T07:19:38;3.60;76.00
8709;DHT22;4391;48.678;9.280;2023-02-01T07:22:05;3.60;83.00
8709;DHT22;4391;48.678;9.280;2023-02-01T07:24:33;3.60;81.50
8709;DHT22;4391;48.678;9.280;2023-02-01T07:27:00;3.60;79.70
8709;DHT22;4391;48.678;9.280;2023-02-01T07:29:27;3.60;86.10
8709;DHT22;4391;48.678;9.280;2023-02-01T07:31:54;3.60;88.50
8709;DHT22;4391;48.678;9.280;2023-02-01T07:34:21;3.60;86.80
8709;DHT22;4391;48.678;9.280;2023-02-01T07:36:49;3.60;84.20
8709;DHT22;4391;48.678;9.280;2023-02-01T07:39:16;3.70;79.00
8709;DHT22;4391;48.678;9.280;2023-02-01T07:41:43;3.60;82.30
8709;DHT22;4391;48.678;9.280;2023-02-01T07:44:10;3.70;80.30
8709;DHT22;4391;48.678;9.280;2023-02-01T07:46:37;3.70;75.40
8709;DHT22;4391;48.678;9.280;2023-02-01T07:49:08;3.70;66.40
8709;DHT22;4391;48.678;9.280;2023-02-01T07:51:35;3.70;74.10
8709;DHT22;4391;48.678;9.280;2023-02-01T07:54:04;3.70;64.00
8709;DHT22;4391;48.678;9.280;2023-02-01T07:56:31;3.80;63.50
8709;DHT22;4391;48.678;9.280;2023-02-01T07:58:57;3.80;54.20
8709;DHT22;4391;48.678;9.280;2023-02-01T08:01:27;3.90;46.00
8709;DHT22;4391;48.678;9.280;2023-02-01T08:03:54;3.90;46.00
8709;DHT22;4391;48.678;9.280;2023-02-01T08:06:22;4.00;38.70
8709;DHT22;4391;48.678;9.280;2023-02-01T08:08:50;4.00;37.80
8709;DHT22;4391;48.678;9.280;2023-02-01T08:11:19;4.00;29.10
8709;DHT22;4391;48.678;9.280;2023-02-01T08:13:47;4.00;27.60
8709;DHT22;4391;48.678;9.280;2023-02-01T08:16:15;4.10;28.20
8709;DHT22;4391;48.678;9.280;2023-02-01T08:18:43;4.10;24.40
8709;DHT22;4391;48.678;9.280;2023-02-01T08:21:11;4.10;22.30
8709;DHT22;4391;48.678;9.280;2023-02-01T08:23:40;4.00;23.70
8709;DHT22;4391;48.678;9.280;2023-02-01T08:26:09;4.20;16.00
8709;DHT22;4391;48.678;9.280;2023-02-01T08:28:40;4.10;19.10
8709;DHT22;4391;48.678;9.280;2023-02-01T08:31:08;4.10;14.80
8709;DHT22;4391;48.678;9.280;2023-02-01T08:33:35;4.10;22.70
8709;DHT22;4391;48.678;9.280;2023-02-01T08:36:04;4.10;8.50
8709;DHT22;4391;48.678;9.280;2023-02-01T08:38:31;4.20;3.60
8709;DHT22;4391;48.678;9.280;2023-02-01T08:41:04;4.20;2.40
8709;DHT22;4391;48.678;9.280;2023-02-01T08:43:31;4.20;1.00
8709;DHT22;4391;48.678;9.280;2023-02-01T08:45:59;4.20;1.00
8709;DHT22;4391;48.678;9.280;2023-02-01T08:48:26;4.20;1.00
8709;DHT22;4391;48.678;9.280;2023-02-01T08:50:53;4.20;1.00
8709;DHT22;4391;48.678;9.280;2023-02-01T08:53:20;4.20;1.00
8709;DHT22;4391;48.678;9.280;2023-02-01T08:55:47;4.30;1.00
8709;DHT22;4391;48.678;9.280;2023-02-01T08:58:14;4.40;1.00
8709;DHT22;4391;48.678;9.280;2023-02-01T09:00:42;4.50;1.00
8709;DHT22;4391;48.678;9.280;2023-02-01T09:03:12;4.50;1.00
8709;DHT22;4391;48.678;9.280;2023-02-01T09:05:39;4.60;1.00
8709;DHT22;4391;48.678;9.280;2023-02-01T09:08:06;4.60;1.00
8709;DHT22;4391;48.678;9.280;2023-02-01T09:10:34;4.60;1.00
8709;DHT22;4391;48.678;9.280;2023-02-01T09:13:00;4.50;1.00
8709;DHT22;4391;48.678;9.280;2023-02-01T09:15:28;4.50;1.00
8709;DHT22;4391;48.678;9.280;2023-02-01T09:17:56;4.50;1.00
8709;DHT22;4391;48.678;9.280;2023-02-01T09:20:24;4.50;1.00
8709;DHT22;4391;48.678;9.280;2023-02-01T09:22:51;4.50;1.00
8709;DHT22;4391;48.678;9.280;2023-02-01T09:25:18;4.50;1.00
8709;DHT22;4391;48.678;9.280;2023-02-01T09:27:45;4.50;1.00
8709;DHT22;4391;48.678;9.280;2023-02-01T09:30:13;4.60;1.00
8709;DHT22;4391;48.678;9.280;2023-02-01T09:32:39;4.60;1.00
8709;DHT22;4391;48.678;9.280;2023-02-01T09:35:07;4.60;1.00
8709;DHT22;4391;48.678;9.280;2023-02-01T09:37:35;4.60;1.00
8709;DHT22;4391;48.678;9.280;2023-02-01T09:40:03;4.60;1.00
8709;DHT22;4391;48.678;9.280;2023-02-01T09:42:50;4.60;1.00
8709;DHT22;4391;48.678;9.280;2023-02-01T09:45:26;4.50;1.00
8709;DHT22;4391;48.678;9.280;2023-02-01T09:47:59;4.50;1.00
8709;DHT22;4391;48.678;9.280;2023-02-01T09:50:32;4.60;1.00
8709;DHT22;4391;48.678;9.280;2023-02-01T09:53:03;4.50;1.00
8709;DHT22;4391;48.678;9.280;2023-02-01T09:55:36;4.60;1.00
8709;DHT22;4391;48.678;9.280;2023-02-01T09:58:07;4.60;1.00
8709;DHT22;4391;48.678;9.280;2023-02-01T10:00:36;4.60;1.00
8709;DHT22;4391;48.678;9.280;2023-02-01T10:03:04;4.60;1.00
8709;DHT22;4391;48.678;9.280;2023-02-01T10:05:44;4.70;1.00
8709;DHT22;4391;48.678;9.280;2023-02-01T10:08:21;4.80;1.00
8709;DHT22;4391;48.678;9.280;2023-02-01T10:10:52;4.90;1.00
8709;DHT22;4391;48.678;9.280;2023-02-01T10:13:31;4.90;1.00
8709;DHT22;4391;48.678;9.280;2023-02-01T10:16:15;4.90;1.00
8709;DHT22;4391;48.678;9.280;2023-02-01T10:18:56;4.90;1.00
8709;DHT22;4391;48.678;9.280;2023-02-01T10:21:32;5.00;1.00
8709;DHT22;4391;48.678;9.280;2023-02-01T10:24:20;5.00;1.00
8709;DHT22;4391;48.678;9.280;2023-02-01T10:26:52;5.00;1.00
8709;DHT22;4391;48.678;9.280;2023-02-01T10:29:26;5.00;1.00
8709;DHT22;4391;48.678;9.280;2023-02-01T10:31:54;5.00;99.90
8709;DHT22;4391;48.678;9.280;2023-02-01T10:34:24;5.00;99.90
8709;DHT22;4391;48.678;9.280;2023-02-01T10:36:55;5.00;1.00
8709;DHT22;4391;48.678;9.280;2023-02-01T10:39:24;5.00;1.00
8709;DHT22;4391;48.678;9.280;2023-02-01T10:41:51;5.00;99.90
8709;DHT22;4391;48.678;9.280;2023-02-01T10:44:21;5.00;99.90
8709;DHT22;4391;48.678;9.280;2023-02-01T10:46:50;5.00;99.90
8709;DHT22;4391;48.678;9.280;2023-02-01T10:49:19;5.10;99.90
8709;DHT22;4391;48.678;9.280;2023-02-01T10:51:52;5.10;99.90
8709;DHT22;4391;48.678;9.280;2023-02-01T10:54:31;5.10;99.90
8709;DHT22;4391;48.678;9.280;2023-02-01T10:56:58;5.10;99.90
8709;DHT22;4391;48.678;9.280;2023-02-01T10:59:28;5.20;99.90
8709;DHT22;4391;48.678;9.280;2023-02-01T11:01:59;5.20;99.90
8709;DHT22;4391;48.678;9.280;2023-02-01T11:04:26;5.10;99.90
8709;DHT22;4391;48.678;9.280;2023-02-01T11:07:06;5.10;99.90
8709;DHT22;4391;48.678;9.280;2023-02-01T11:09:39;5.10;14.30
8709;DHT22;4391;48.678;9.280;2023-02-01T11:12:22;5.20;1.00
8709;DHT22;4391;48.678;9.280;2023-02-01T11:14:50;5.20;1.00
8709;DHT22;4391;48.678;9.280;2023-02-01T11:17:24;5.20;1.00
8709;DHT22;4391;48.678;9.280;2023-02-01T11:19:57;5.20;99.90
8709;DHT22;4391;48.678;9.280;2023-02-01T11:22:25;5.20;99.90
8709;DHT22;4391;48.678;9.280;2023-02-01T11:24:56;5.30;1.00
8709;DHT22;4391;48.678;9.280;2023-02-01T11:27:24;5.40;99.90
8709;DHT22;4391;48.678;9.280;2023-02-01T11:29:55;5.50;1.00
8709;DHT22;4391;48.678;9.280;2023-02-01T11:32:23;5.60;99.90
8709;DHT22;4391;48.678;9.280;2023-02-01T11:34:54;5.60;64.00
8709;DHT22;4391;48.678;9.280;2023-02-01T11:37:26;5.60;99.90
8709;DHT22;4391;48.678;9.280;2023-02-01T11:39:56;5.60;99.90
8709;DHT22;4391;48.678;9.280;2023-02-01T11:42:24;5.70;1.00
8709;DHT22;4391;48.678;9.280;2023-02-01T11:45:15;5.60;99.90
8709;DHT22;4391;48.678;9.280;2023-02-01T11:47:42;5.70;99.90
8709;DHT22;4391;48.678;9.280;2023-02-01T11:50:15;5.70;39.20
8709;DHT22;4391;48.678;9.280;2023-02-01T11:52:57;5.70;99.90
8709;DHT22;4391;48.678;9.280;2023-02-01T11:55:50;5.70;99.90
8709;DHT22;4391;48.678;9.280;2023-02-01T11:58:33;5.80;99.90
8709;DHT22;4391;48.678;9.280;2023-02-01T12:01:14;5.80;99.90
8709;DHT22;4391;48.678;9.280;2023-02-01T12:04:13;5.70;99.90
8709;DHT22;4391;48.678;9.280;2023-02-01T12:06:48;5.70;99.90
8709;DHT22;4391;48.678;9.280;2023-02-01T12:09:43;5.70;99.90
8709;DHT22;4391;48.678;9.280;2023-02-01T12:12:19;5.70;99.90
8709;DHT22;4391;48.678;9.280;2023-02-01T12:15:05;5.70;99.90
8709;DHT22;4391;48.678;9.280;2023-02-01T12:17:49;5.60;99.90
8709;DHT22;4391;48.678;9.280;2023-02-01T12:20:28;5.60;1.00
8709;DHT22;4391;48.678;9.280;2023-02-01T12:23:12;5.60;1.00
8709;DHT22;4391;48.678;9.280;2023-02-01T12:25:59;5.60;1.00
8709;DHT22;4391;48.678;9.280;2023-02-01T12:28:59;5.60;1.00
8709;DHT22;4391;48.678;9.280;2023-02-01T12:31:42;5.70;99.90
8709;DHT22;4391;48.678;9.280;2023-02-01T12:37:06;5.60;99.90
8709;DHT22;4391;48.678;9.280;2023-02-01T12:39:39;5.50;99.90
8709;DHT22;4391;48.678;9.280;2023-02-01T12:42:12;5.50;49.20
8709;DHT22;4391;48.678;9.280;2023-02-01T12:44:48;5.50;99.90
8709;DHT22;4391;48.678;9.280;2023-02-01T12:47:21;5.50;99.90
8709;DHT22;4391;48.678;9.280;2023-02-01T12:49:55;5.50;99.90
8709;DHT22;4391;48.678;9.280;2023-02-01T12:52:29;5.50;99.90
8709;DHT22;4391;48.678;9.280;2023-02-01T12:55:03;5.50;1.00
8709;DHT22;4391;48.678;9.280;2023-02-01T12:57:34;5.50;1.00
8709;DHT22;4391;48.678;9.280;2023-02-01T13:00:12;5.50;99.90
8709;DHT22;4391;48.678;9.280;2023-02-01T13:02:43;5.50;1.00
8709;DHT22;4391;48.678;9.280;2023-02-01T13:05:17;5.50;1.00
8709;DHT22;4391;48.678;9.280;2023-02-01T13:07:49;5.50;1.00
8709;DHT22;4391;48.678;9.280;2023-02-01T13:10:20;5.50;99.90
8709;DHT22;4391;48.678;9.280;2023-02-01T13:12:51;5.40;1.00
8709;DHT22;4391;48.678;9.280;2023-02-01T13:15:24;5.40;99.90
8709;DHT22;4391;48.678;9.280;2023-02-01T13:17:54;5.40;99.90
8709;DHT22;4391;48.678;9.280;2023-02-01T13:20:25;5.40;1.00
8709;DHT22;4391;48.678;9.280;2023-02-01T13:22:59;5.40;1.00
8709;DHT22;4391;48.678;9.280;2023-02-01T13:25:31;5.40;1.00
8709;DHT22;4391;48.678;9.280;2023-02-01T13:28:04;5.40;1.00
8709;DHT22;4391;48.678;9.280;2023-02-01T13:30:47;5.40;99.90
8709;DHT22;4391;48.678;9.280;2023-02-01T13:33:52;5.40;99.90
8709;DHT22;4391;48.678;9.280;2023-02-01T13:36:40;5.40;99.90
8709;DHT22;4391;48.678;9.280;2023-02-01T13:39:41;5.40;1.00
8709;DHT22;4391;48.678;9.280;2023-02-01T13:42:16;5.40;99.90
8709;DHT22;4391;48.678;9.280;2023-02-01T13:44:46;5.40;99.90
8709;DHT22;4391;48.678;9.280;2023-02-01T13:47:23;5.40;99.90
8709;DHT22;4391;48.678;9.280;2023-02-01T13:49:52;5.40;99.90
8709;DHT22;4391;48.678;9.280;2023-02-01T13:52:31;5.40;99.90
8709;DHT22;4391;48.678;9.280;2023-02-01T13:55:13;5.40;99.90
8709;DHT22;4391;48.678;9.280;2023-02-01T13:57:42;5.40;99.90
8709;DHT22;4391;48.678;9.280;2023-02-01T14:00:24;5.30;1.00
8709;DHT22;4391;48.678;9.280;2023-02-01T14:03:17;5.30;99.90
8709;DHT22;4391;48.678;9.280;2023-02-01T14:06:03;5.30;99.90
8709;DHT22;4391;48.678;9.280;2023-02-01T14:08:43;5.30;99.90
8709;DHT22;4391;48.678;9.280;2023-02-01T14:11:33;5.30;99.90
8709;DHT22;4391;48.678;9.280;2023-02-01T14:23:25;5.30;1.00
8709;DHT22;4391;48.678;9.280;2023-02-01T14:26:15;5.30;1.00
8709;DHT22;4391;48.678;9.280;2023-02-01T14:29:00;5.30;1.00
8709;DHT22;4391;48.678;9.280;2023-02-01T14:31:52;5.30;99.90
8709;DHT22;4391;48.678;9.280;2023-02-01T14:34:25;5.30;1.00
8709;DHT22;4391;48.678;9.280;2023-02-01T14:36:57;5.20;1.00
8709;DHT22;4391;48.678;9.280;2023-02-01T14:39:36;5.20;1.00
8709;DHT22;4391;48.678;9.280;2023-02-01T14:42:12;5.30;1.00
8709;DHT22;4391;48.678;9.280;2023-02-01T14:44:41;5.20;1.00
8709;DHT22;4391;48.678;9.280;2023-02-01T14:47:30;5.30;99.90
8709;DHT22;4391;48.678;9.280;2023-02-01T14:50:25;5.30;1.00
8709;DHT22;4391;48.678;9.280;2023-02-01T14:53:12;5.30;1.00
8709;DHT22;4391;48.678;9.280;2023-02-01T14:55:45;5.20;99.90
8709;DHT22;4391;48.678;9.280;2023-02-01T14:58:19;5.20;78.20
8709;DHT22;4391;48.678;9.280;2023-02-01T15:00:49;5.20;99.90
8709;DHT22;4391;48.678;9.280;2023-02-01T15:03:31;5.20;99.90
8709;DHT22;4391;48.678;9.280;2023-02-01T15:06:01;5.20;1.00
8709;DHT22;4391;48.678;9.280;2023-02-01T15:08:33;5.20;1.00
8709;DHT22;4391;48.678;9.280;2023-02-01T15:11:08;5.20;1.00
8709;DHT22;4391;48.678;9.280;2023-02-01T15:13:35;5.10;99.90
8709;DHT22;4391;48.678;9.280;2023-02-01T15:16:04;5.10;99.90
8709;DHT22;4391;48.678;9.280;2023-02-01T15:18:31;5.10;99.90
8709;DHT22;4391;48.678;9.280;2023-02-01T15:21:00;5.10;1.00
8709;DHT22;4391;48.678;9.280;2023-02-01T15:23:27;5.10;1.00
8709;DHT22;4391;48.678;9.280;2023-02-01T15:25:54;5.10;99.90
8709;DHT22;4391;48.678;9.280;2023-02-01T15:28:23;5.10;99.90
8709;DHT22;4391;48.678;9.280;2023-02-01T15:30:56;5.20;99.90
8709;DHT22;4391;48.678;9.280;2023-02-01T15:33:24;5.10;99.90
8709;DHT22;4391;48.678;9.280;2023-02-01T15:36:06;5.10;99.90
8709;DHT22;4391;48.678;9.280;2023-02-01T15:38:42;5.10;99.90
8709;DHT22;4391;48.678;9.280;2023-02-01T15:41:11;5.10;99.90
8709;DHT22;4391;48.678;9.280;2023-02-01T15:43:44;5.10;99.90
8709;DHT22;4391;48.678;9.280;2023-02-01T15:46:16;5.10;99.90
8709;DHT22;4391;48.678;9.280;2023-02-01T15:48:48;5.10;1.00
8709;DHT22;4391;48.678;9.280;2023-02-01T15:51:18;5.10;1.00
8709;DHT22;4391;48.678;9.280;2023-02-01T15:53:51;5.10;99.90
8709;DHT22;4391;48.678;9.280;2023-02-01T15:56:25;5.20;1.00
8709;DHT22;4391;48.678;9.280;2023-02-01T15:58:56;5.20;99.90
8709;DHT22;4391;48.678;9.280;2023-02-01T16:01:23;5.20;1.00
8709;DHT22;4391;48.678;9.280;2023-02-01T16:04:16;5.10;99.90
8709;DHT22;4391;48.678;9.280;2023-02-01T16:06:50;5.10;99.90
8709;DHT22;4391;48.678;9.280;2023-02-01T16:09:19;5.10;1.00
8709;DHT22;4391;48.678;9.280;2023-02-01T16:11:54;5.10;99.90
8709;DHT22;4391;48.678;9.280;2023-02-01T16:14:24;5.10;99.90
8709;DHT22;4391;48.678;9.280;2023-02-01T16:16:54;5.10;99.90
8709;DHT22;4391;48.678;9.280;2023-02-01T16:19:21;5.10;1.00
8709;DHT22;4391;48.678;9.280;2023-02-01T16:21:53;5.10;99.90
8709;DHT22;4391;48.678;9.280;2023-02-01T16:24:20;5.10;99.90
8709;DHT22;4391;48.678;9.280;2023-02-01T16:26:48;5.10;99.90
8709;DHT22;4391;48.678;9.280;2023-02-01T16:29:15;5.10;99.90
8709;DHT22;4391;48.678;9.280;2023-02-01T16:31:43;5.10;99.90
8709;DHT22;4391;48.678;9.280;2023-02-01T16:34:14;5.10;99.90
8709;DHT22;4391;48.678;9.280;2023-02-01T16:36:42;5.10;99.90
8709;DHT22;4391;48.678;9.280;2023-02-01T16:39:11;5.10;99.90
8709;DHT22;4391;48.678;9.280;2023-02-01T16:41:39;5.10;99.90
8709;DHT22;4391;48.678;9.280;2023-02-01T16:44:06;5.10;99.90
8709;DHT22;4391;48.678;9.280;2023-02-01T16:46:35;5.10;99.90
8709;DHT22;4391;48.678;9.280;2023-02-01T16:49:17;5.10;94.80
8709;DHT22;4391;48.678;9.280;2023-02-01T16:51:45;5.10;99.90
8709;DHT22;4391;48.678;9.280;2023-02-01T16:54:14;5.10;99.90
8709;DHT22;4391;48.678;9.280;2023-02-01T16:56:42;5.10;1.00
8709;DHT22;4391;48.678;9.280;2023-02-01T16:59:09;5.10;1.00
8709;DHT22;4391;48.678;9.280;2023-02-01T17:01:36;5.10;1.00
8709;DHT22;4391;48.678;9.280;2023-02-01T17:04:05;5.00;1.00
8709;DHT22;4391;48.678;9.280;2023-02-01T17:06:32;5.10;99.90
8709;DHT22;4391;48.678;9.280;2023-02-01T17:09:02;5.10;99.90
8709;DHT22;4391;48.678;9.280;2023-02-01T17:11:30;5.10;99.90
8709;DHT22;4391;48.678;9.280;2023-02-01T17:14:01;5.10;1.00
8709;DHT22;4391;48.678;9.280;2023-02-01T17:16:36;5.00;1.00
8709;DHT22;4391;48.678;9.280;2023-02-01T17:19:06;5.00;1.00
8709;DHT22;4391;48.678;9.280;2023-02-01T17:21:40;5.00;1.00